sensor_id;sensor_type;location;lat;lon;timestamp;temperature;humidity
28484;DHT22;15704;48.834;8.736;2022-07-06T00:01:44;16.30;94.30
28484;DHT22;15704;48.834;8.736;2022-07-06T00:05:27;16.20;94.00
28484;DHT22;15704;48.834;8.736;2022-07-06T00:09:11;16.20;94.10
28484;DHT22;15704;48.834;8.736;2022-07-06T00:12:55;16.10;94.10
28484;DHT22;15704;48.834;8.736;2022-07-06T00:16:43;16.10;94.10
28484;DHT22;15704;48.834;8.736;2022-07-06T00:20:28;16.10;94.10
28484;DHT22;15704;48.834;8.736;2022-07-06T00:24:11;16.00;94.00
28484;DHT22;15704;48.834;8.736;2022-07-06T00:27:55;16.10;94.30
28484;DHT22;15704;48.834;8.736;2022-07-06T00:31:40;16.10;94.00
28484;DHT22;15704;48.834;8.736;2022-07-06T00:35:28;16.00;93.90
28484;DHT22;15704;48.834;8.736;2022-07-06T00:39:11;16.00;94.00
28484;DHT22;15704;48.834;8.736;2022-07-06T00:42:56;16.00;93.80
28484;DHT22;15704;48.834;8.736;2022-07-06T00:46:38;16.00;94.00
28484;DHT22;15704;48.834;8.736;2022-07-06T00:50:22;15.90;94.20
28484;DHT22;15704;48.834;8.736;2022-07-06T00:54:05;15.80;94.30
28484;DHT22;15704;48.834;8.736;2022-07-06T00:57:51;15.80;94.40
28484;DHT22;15704;48.834;8.736;2022-07-06T01:01:36;15.80;94.40
28484;DHT22;15704;48.834;8.736;2022-07-06T01:05:19;15.70;94.60
28484;DHT22;15704;48.834;8.736;2022-07-06T01:09:04;15.70;94.70
28484;DHT22;15704;48.834;8.736;2022-07-06T01:12:48;15.60;95.00
28484;DHT22;15704;48.834;8.736;2022-07-06T01:16:31;15.50;95.50
28484;DHT22;15704;48.834;8.736;2022-07-06T01:20:16;15.40;96.20
28484;DHT22;15704;48.834;8.736;2022-07-06T01:23:59;15.20;96.80
28484;DHT22;15704;48.834;8.736;2022-07-06T01:27:42;15.10;97.00
28484;DHT22;15704;48.834;8.736;2022-07-06T01:31:26;15.00;97.40
28484;DHT22;15704;48.834;8.736;2022-07-06T01:35:16;14.90;97.70
28484;DHT22;15704;48.834;8.736;2022-07-06T01:39:00;14.80;97.90
28484;DHT22;15704;48.834;8.736;2022-07-06T01:42:45;14.80;98.20
28484;DHT22;15704;48.834;8.736;2022-07-06T01:46:28;14.70;98.40
28484;DHT22;15704;48.834;8.736;2022-07-06T01:50:11;14.60;98.60
28484;DHT22;15704;48.834;8.736;2022-07-06T01:53:54;14.50;98.90
28484;DHT22;15704;48.834;8.736;2022-07-06T01:57:39;14.50;99.10
28484;DHT22;15704;48.834;8.736;2022-07-06T02:01:21;14.40;99.50
28484;DHT22;15704;48.834;8.736;2022-07-06T02:05:06;14.40;99.50
28484;DHT22;15704;48.834;8.736;2022-07-06T02:08:49;14.30;99.60
28484;DHT22;15704;48.834;8.736;2022-07-06T02:12:33;14.30;99.80
28484;DHT22;15704;48.834;8.736;2022-07-06T02:16:17;14.30;99.90
28484;DHT22;15704;48.834;8.736;2022-07-06T02:20:05;14.30;99.90
28484;DHT22;15704;48.834;8.736;2022-07-06T02:23:51;14.20;99.90
28484;DHT22;15704;48.834;8.736;2022-07-06T02:27:34;14.10;99.90
28484;DHT22;15704;48.834;8.736;2022-07-06T02:31:18;14.10;99.90
28484;DHT22;15704;48.834;8.736;2022-07-06T02:35:02;14.10;99.90
28484;DHT22;15704;48.834;8.736;2022-07-06T02:38:48;14.00;99.90
28484;DHT22;15704;48.834;8.736;2022-07-06T02:42:31;14.00;99.90
28484;DHT22;15704;48.834;8.736;2022-07-06T02:46:18;13.90;99.90
28484;DHT22;15704;48.834;8.736;2022-07-06T02:50:01;13.90;99.90
28484;DHT22;15704;48.834;8.736;2022-07-06T02:53:44;13.80;99.90
28484;DHT22;15704;48.834;8.736;2022-07-06T02:57:28;13.80;99.90
28484;DHT22;15704;48.834;8.736;2022-07-06T03:01:11;13.80;99.90
28484;DHT22;15704;48.834;8.736;2022-07-06T03:04:55;13.70;99.90
28484;DHT22;15704;48.834;8.736;2022-07-06T03:08:41;13.70;99.90
28484;DHT22;15704;48.834;8.736;2022-07-06T03:12:23;13.70;99.90
28484;DHT22;15704;48.834;8.736;2022-07-06T03:16:07;13.60;99.90
28484;DHT22;15704;48.834;8.736;2022-07-06T03:19:49;13.60;99.90
28484;DHT22;15704;48.834;8.736;2022-07-06T03:23:35;13.60;99.90
28484;DHT22;15704;48.834;8.736;2022-07-06T03:27:17;13.50;99.90
28484;DHT22;15704;48.834;8.736;2022-07-06T03:31:00;13.50;99.90
28484;DHT22;15704;48.834;8.736;2022-07-06T03:34:43;13.50;99.90
28484;DHT22;15704;48.834;8.736;2022-07-06T03:38:29;13.50;99.90
28484;DHT22;15704;48.834;8.736;2022-07-06T03:42:13;13.50;99.90
28484;DHT22;15704;48.834;8.736;2022-07-06T03:45:56;13.50;99.90
28484;DHT22;15704;48.834;8.736;2022-07-06T03:49:41;13.50;99.90
28484;DHT22;15704;48.834;8.736;2022-07-06T03:53:25;13.50;99.90
28484;DHT22;15704;48.834;8.736;2022-07-06T03:57:07;13.60;99.90
28484;DHT22;15704;48.834;8.736;2022-07-06T04:00:54;13.60;99.90
28484;DHT22;15704;48.834;8.736;2022-07-06T04:04:37;13.60;99.90
28484;DHT22;15704;48.834;8.736;2022-07-06T04:08:20;13.70;99.90
28484;DHT22;15704;48.834;8.736;2022-07-06T04:12:04;13.80;99.90
28484;DHT22;15704;48.834;8.736;2022-07-06T04:15:47;13.90;99.90
28484;DHT22;15704;48.834;8.736;2022-07-06T04:19:31;13.90;99.90
28484;DHT22;15704;48.834;8.736;2022-07-06T04:23:24;14.00;99.90
28484;DHT22;15704;48.834;8.736;2022-07-06T04:27:09;14.60;99.90
28484;DHT22;15704;48.834;8.736;2022-07-06T04:30:52;14.70;99.90
28484;DHT22;15704;48.834;8.736;2022-07-06T04:34:44;14.70;99.90
28484;DHT22;15704;48.834;8.736;2022-07-06T04:38:28;14.50;99.90
28484;DHT22;15704;48.834;8.736;2022-07-06T04:42:14;14.50;99.90
28484;DHT22;15704;48.834;8.736;2022-07-06T04:45:57;14.50;99.90
28484;DHT22;15704;48.834;8.736;2022-07-06T04:49:45;15.70;99.90
28484;DHT22;15704;48.834;8.736;2022-07-06T04:53:30;20.40;95.70
28484;DHT22;15704;48.834;8.736;2022-07-06T04:57:13;22.80;89.70
28484;DHT22;15704;48.834;8.736;2022-07-06T05:00:56;24.90;81.90
28484;DHT22;15704;48.834;8.736;2022-07-06T05:04:39;23.50;81.70
28484;DHT22;15704;48.834;8.736;2022-07-06T05:08:24;20.70;90.80
28484;DHT22;15704;48.834;8.736;2022-07-06T05:12:08;18.20;95.10
28484;DHT22;15704;48.834;8.736;2022-07-06T05:15:51;17.00;97.80
28484;DHT22;15704;48.834;8.736;2022-07-06T05:19:34;16.50;99.50
28484;DHT22;15704;48.834;8.736;2022-07-06T05:23:18;16.10;99.90
28484;DHT22;15704;48.834;8.736;2022-07-06T05:27:05;15.90;99.90
28484;DHT22;15704;48.834;8.736;2022-07-06T05:30:48;15.60;99.90
28484;DHT22;15704;48.834;8.736;2022-07-06T05:34:31;15.60;99.90
28484;DHT22;15704;48.834;8.736;2022-07-06T05:38:13;15.40;99.90
28484;DHT22;15704;48.834;8.736;2022-07-06T05:41:56;15.60;99.90
28484;DHT22;15704;48.834;8.736;2022-07-06T05:45:40;15.70;99.90
28484;DHT22;15704;48.834;8.736;2022-07-06T05:49:23;15.50;99.90
28484;DHT22;15704;48.834;8.736;2022-07-06T05:53:23;15.60;99.90
28484;DHT22;15704;48.834;8.736;2022-07-06T05:57:06;15.60;99.90
28484;DHT22;15704;48.834;8.736;2022-07-06T06:00:50;15.90;99.90
28484;DHT22;15704;48.834;8.736;2022-07-06T06:04:32;15.90;99.90
28484;DHT22;15704;48.834;8.736;2022-07-06T06:08:18;15.90;99.90
28484;DHT22;15704;48.834;8.736;2022-07-06T06:12:02;16.20;99.90
28484;DHT22;15704;48.834;8.736;2022-07-06T06:15:45;16.40;99.90
28484;DHT22;15704;48.834;8.736;2022-07-06T06:19:30;16.30;99.90
28484;DHT22;15704;48.834;8.736;2022-07-06T06:23:15;16.40;99.90
28484;DHT22;15704;48.834;8.736;2022-07-06T06:26:57;16.50;99.90
28484;DHT22;15704;48.834;8.736;2022-07-06T06:30:41;16.10;99.90
28484;DHT22;15704;48.834;8.736;2022-07-06T06:34:24;16.50;99.60
28484;DHT22;15704;48.834;8.736;2022-07-06T06:38:08;17.20;99.30
28484;DHT22;15704;48.834;8.736;2022-07-06T06:41:53;16.90;98.80
28484;DHT22;15704;48.834;8.736;2022-07-06T06:45:35;17.20;98.50
28484;DHT22;15704;48.834;8.736;2022-07-06T06:49:18;17.30;98.40
28484;DHT22;15704;48.834;8.736;2022-07-06T06:53:02;17.60;97.80
28484;DHT22;15704;48.834;8.736;2022-07-06T06:56:46;17.50;97.60
28484;DHT22;15704;48.834;8.736;2022-07-06T07:00:29;17.40;97.80
28484;DHT22;15704;48.834;8.736;2022-07-06T07:04:11;17.20;98.20
28484;DHT22;15704;48.834;8.736;2022-07-06T07:07:54;17.00;98.20
28484;DHT22;15704;48.834;8.736;2022-07-06T07:11:46;17.60;98.60
28484;DHT22;15704;48.834;8.736;2022-07-06T07:15:29;17.40;97.80
28484;DHT22;15704;48.834;8.736;2022-07-06T07:19:12;17.40;97.90
28484;DHT22;15704;48.834;8.736;2022-07-06T07:22:55;17.10;98.40
28484;DHT22;15704;48.834;8.736;2022-07-06T07:26:38;16.80;99.40
28484;DHT22;15704;48.834;8.736;2022-07-06T07:30:22;17.00;98.90
28484;DHT22;15704;48.834;8.736;2022-07-06T07:34:05;16.90;99.00
28484;DHT22;15704;48.834;8.736;2022-07-06T07:37:48;16.80;99.40
28484;DHT22;15704;48.834;8.736;2022-07-06T07:41:31;16.80;99.70
28484;DHT22;15704;48.834;8.736;2022-07-06T07:45:13;16.80;99.50
28484;DHT22;15704;48.834;8.736;2022-07-06T07:48:58;16.60;99.90
28484;DHT22;15704;48.834;8.736;2022-07-06T07:52:41;16.90;99.40
28484;DHT22;15704;48.834;8.736;2022-07-06T07:56:28;16.80;99.50
28484;DHT22;15704;48.834;8.736;2022-07-06T08:00:12;17.20;99.60
28484;DHT22;15704;48.834;8.736;2022-07-06T08:03:55;17.00;99.30
28484;DHT22;15704;48.834;8.736;2022-07-06T08:07:40;17.00;99.40
28484;DHT22;15704;48.834;8.736;2022-07-06T08:11:23;17.40;99.20
28484;DHT22;15704;48.834;8.736;2022-07-06T08:15:07;17.50;98.80
28484;DHT22;15704;48.834;8.736;2022-07-06T08:18:50;17.40;98.80
28484;DHT22;15704;48.834;8.736;2022-07-06T08:22:35;17.50;99.20
28484;DHT22;15704;48.834;8.736;2022-07-06T08:26:23;17.60;98.80
28484;DHT22;15704;48.834;8.736;2022-07-06T08:30:07;17.80;99.00
28484;DHT22;15704;48.834;8.736;2022-07-06T08:33:51;18.00;98.30
28484;DHT22;15704;48.834;8.736;2022-07-06T08:37:37;17.80;98.10
28484;DHT22;15704;48.834;8.736;2022-07-06T08:41:23;17.90;98.10
28484;DHT22;15704;48.834;8.736;2022-07-06T08:45:08;18.10;98.40
28484;DHT22;15704;48.834;8.736;2022-07-06T08:48:50;17.90;98.80
28484;DHT22;15704;48.834;8.736;2022-07-06T08:52:34;18.10;97.90
28484;DHT22;15704;48.834;8.736;2022-07-06T08:56:18;18.20;97.30
28484;DHT22;15704;48.834;8.736;2022-07-06T09:00:03;18.40;97.50
28484;DHT22;15704;48.834;8.736;2022-07-06T09:03:48;18.60;97.10
28484;DHT22;15704;48.834;8.736;2022-07-06T09:07:32;18.30;97.80
28484;DHT22;15704;48.834;8.736;2022-07-06T09:11:34;18.90;97.30
28484;DHT22;15704;48.834;8.736;2022-07-06T09:15:27;19.20;96.90
28484;DHT22;15704;48.834;8.736;2022-07-06T09:19:13;18.80;96.10
28484;DHT22;15704;48.834;8.736;2022-07-06T09:23:00;19.10;96.60
28484;DHT22;15704;48.834;8.736;2022-07-06T09:26:43;19.40;96.90
28484;DHT22;15704;48.834;8.736;2022-07-06T09:30:29;19.60;95.90
28484;DHT22;15704;48.834;8.736;2022-07-06T09:34:13;19.10;96.60
28484;DHT22;15704;48.834;8.736;2022-07-06T09:38:04;18.80;96.70
28484;DHT22;15704;48.834;8.736;2022-07-06T09:41:47;19.00;96.70
28484;DHT22;15704;48.834;8.736;2022-07-06T09:45:33;18.80;96.40
28484;DHT22;15704;48.834;8.736;2022-07-06T09:49:17;18.90;96.90
28484;DHT22;15704;48.834;8.736;2022-07-06T09:53:01;19.10;96.70
28484;DHT22;15704;48.834;8.736;2022-07-06T09:56:45;19.20;96.70
28484;DHT22;15704;48.834;8.736;2022-07-06T10:00:36;19.60;96.00
28484;DHT22;15704;48.834;8.736;2022-07-06T10:04:19;19.40;95.80
28484;DHT22;15704;48.834;8.736;2022-07-06T10:08:03;19.30;95.80
28484;DHT22;15704;48.834;8.736;2022-07-06T10:11:52;19.50;95.10
28484;DHT22;15704;48.834;8.736;2022-07-06T10:15:38;19.70;95.20
28484;DHT22;15704;48.834;8.736;2022-07-06T10:19:24;19.40;94.80
28484;DHT22;15704;48.834;8.736;2022-07-06T10:23:08;19.40;95.10
28484;DHT22;15704;48.834;8.736;2022-07-06T10:26:51;19.40;95.40
28484;DHT22;15704;48.834;8.736;2022-07-06T10:30:37;19.50;94.90
28484;DHT22;15704;48.834;8.736;2022-07-06T10:34:23;19.70;95.50
28484;DHT22;15704;48.834;8.736;2022-07-06T10:38:09;19.60;94.80
28484;DHT22;15704;48.834;8.736;2022-07-06T10:41:52;19.70;94.60
28484;DHT22;15704;48.834;8.736;2022-07-06T10:45:52;19.80;94.80
28484;DHT22;15704;48.834;8.736;2022-07-06T10:49:48;20.40;93.40
28484;DHT22;15704;48.834;8.736;2022-07-06T10:53:40;20.40;93.80
28484;DHT22;15704;48.834;8.736;2022-07-06T10:57:25;20.20;93.70
28484;DHT22;15704;48.834;8.736;2022-07-06T11:01:11;20.60;93.10
28484;DHT22;15704;48.834;8.736;2022-07-06T11:04:54;19.90;93.40
28484;DHT22;15704;48.834;8.736;2022-07-06T11:08:52;20.20;93.40
28484;DHT22;15704;48.834;8.736;2022-07-06T11:12:35;20.50;93.10
28484;DHT22;15704;48.834;8.736;2022-07-06T11:16:21;20.20;93.40
28484;DHT22;15704;48.834;8.736;2022-07-06T11:20:09;20.40;92.30
28484;DHT22;15704;48.834;8.736;2022-07-06T11:23:52;20.70;92.30
28484;DHT22;15704;48.834;8.736;2022-07-06T11:27:37;20.30;93.00
28484;DHT22;15704;48.834;8.736;2022-07-06T11:31:21;20.40;92.90
28484;DHT22;15704;48.834;8.736;2022-07-06T11:35:05;20.50;92.50
28484;DHT22;15704;48.834;8.736;2022-07-06T11:38:49;20.90;91.70
28484;DHT22;15704;48.834;8.736;2022-07-06T11:42:32;21.30;91.30
28484;DHT22;15704;48.834;8.736;2022-07-06T11:46:24;20.60;91.40
28484;DHT22;15704;48.834;8.736;2022-07-06T11:50:10;20.60;91.70
28484;DHT22;15704;48.834;8.736;2022-07-06T11:54:07;20.80;92.80
28484;DHT22;15704;48.834;8.736;2022-07-06T11:57:50;21.00;91.50
28484;DHT22;15704;48.834;8.736;2022-07-06T12:01:40;21.00;91.20
28484;DHT22;15704;48.834;8.736;2022-07-06T12:05:29;20.90;91.40
28484;DHT22;15704;48.834;8.736;2022-07-06T12:09:15;20.90;91.50
28484;DHT22;15704;48.834;8.736;2022-07-06T12:13:02;20.80;91.20
28484;DHT22;15704;48.834;8.736;2022-07-06T12:16:50;20.60;91.30
28484;DHT22;15704;48.834;8.736;2022-07-06T12:20:35;20.70;91.40
28484;DHT22;15704;48.834;8.736;2022-07-06T12:24:21;20.90;90.40
28484;DHT22;15704;48.834;8.736;2022-07-06T12:28:04;21.50;90.70
28484;DHT22;15704;48.834;8.736;2022-07-06T12:31:51;21.10;91.30
28484;DHT22;15704;48.834;8.736;2022-07-06T12:35:34;21.30;90.40
28484;DHT22;15704;48.834;8.736;2022-07-06T12:39:17;21.60;89.80
28484;DHT22;15704;48.834;8.736;2022-07-06T12:43:04;21.80;89.70
28484;DHT22;15704;48.834;8.736;2022-07-06T12:46:47;22.40;88.00
28484;DHT22;15704;48.834;8.736;2022-07-06T12:50:35;21.90;89.00
28484;DHT22;15704;48.834;8.736;2022-07-06T12:54:18;21.40;88.00
28484;DHT22;15704;48.834;8.736;2022-07-06T12:58:01;21.70;89.80
28484;DHT22;15704;48.834;8.736;2022-07-06T13:01:46;21.80;89.80
28484;DHT22;15704;48.834;8.736;2022-07-06T13:05:34;21.80;89.00
28484;DHT22;15704;48.834;8.736;2022-07-06T13:09:17;22.00;88.30
28484;DHT22;15704;48.834;8.736;2022-07-06T13:13:00;22.10;88.10
28484;DHT22;15704;48.834;8.736;2022-07-06T13:16:46;22.20;87.80
28484;DHT22;15704;48.834;8.736;2022-07-06T13:20:29;22.00;87.50
28484;DHT22;15704;48.834;8.736;2022-07-06T13:24:14;21.80;89.30
28484;DHT22;15704;48.834;8.736;2022-07-06T13:27:57;21.80;88.40
28484;DHT22;15704;48.834;8.736;2022-07-06T13:31:41;21.60;90.10
28484;DHT22;15704;48.834;8.736;2022-07-06T13:35:24;21.80;89.30
28484;DHT22;15704;48.834;8.736;2022-07-06T13:39:07;21.50;89.70
28484;DHT22;15704;48.834;8.736;2022-07-06T13:42:52;21.60;89.10
28484;DHT22;15704;48.834;8.736;2022-07-06T13:46:36;21.50;89.40
28484;DHT22;15704;48.834;8.736;2022-07-06T13:50:19;21.50;89.60
28484;DHT22;15704;48.834;8.736;2022-07-06T13:54:02;21.50;87.90
28484;DHT22;15704;48.834;8.736;2022-07-06T13:57:47;21.60;89.20
28484;DHT22;15704;48.834;8.736;2022-07-06T14:01:32;21.80;88.80
28484;DHT22;15704;48.834;8.736;2022-07-06T14:05:16;22.00;86.80
28484;DHT22;15704;48.834;8.736;2022-07-06T14:09:00;21.90;87.40
28484;DHT22;15704;48.834;8.736;2022-07-06T14:12:43;22.00;86.60
28484;DHT22;15704;48.834;8.736;2022-07-06T14:16:26;22.40;85.80
28484;DHT22;15704;48.834;8.736;2022-07-06T14:20:11;22.60;84.80
28484;DHT22;15704;48.834;8.736;2022-07-06T14:23:54;22.30;85.80
28484;DHT22;15704;48.834;8.736;2022-07-06T14:27:37;22.50;85.90
28484;DHT22;15704;48.834;8.736;2022-07-06T14:31:21;22.60;86.20
28484;DHT22;15704;48.834;8.736;2022-07-06T14:35:06;22.60;85.70
28484;DHT22;15704;48.834;8.736;2022-07-06T14:38:50;22.50;85.20
28484;DHT22;15704;48.834;8.736;2022-07-06T14:42:35;22.70;84.70
28484;DHT22;15704;48.834;8.736;2022-07-06T14:46:18;22.80;83.30
28484;DHT22;15704;48.834;8.736;2022-07-06T14:50:04;22.80;82.10
28484;DHT22;15704;48.834;8.736;2022-07-06T14:53:47;22.60;83.10
28484;DHT22;15704;48.834;8.736;2022-07-06T14:57:31;23.00;81.20
28484;DHT22;15704;48.834;8.736;2022-07-06T15:01:17;22.80;82.80
28484;DHT22;15704;48.834;8.736;2022-07-06T15:04:59;22.20;81.00
28484;DHT22;15704;48.834;8.736;2022-07-06T15:08:43;22.10;81.60
28484;DHT22;15704;48.834;8.736;2022-07-06T15:12:27;22.10;81.70
28484;DHT22;15704;48.834;8.736;2022-07-06T15:16:12;22.70;80.60
28484;DHT22;15704;48.834;8.736;2022-07-06T15:19:55;22.90;80.00
28484;DHT22;15704;48.834;8.736;2022-07-06T15:23:37;23.40;79.30
28484;DHT22;15704;48.834;8.736;2022-07-06T15:27:20;23.60;76.80
28484;DHT22;15704;48.834;8.736;2022-07-06T15:31:03;23.40;72.50
28484;DHT22;15704;48.834;8.736;2022-07-06T15:34:47;22.90;74.20
28484;DHT22;15704;48.834;8.736;2022-07-06T15:38:30;23.20;75.10
28484;DHT22;15704;48.834;8.736;2022-07-06T15:42:13;23.50;74.10
28484;DHT22;15704;48.834;8.736;2022-07-06T15:45:57;23.10;71.80
28484;DHT22;15704;48.834;8.736;2022-07-06T15:49:44;23.30;73.80
28484;DHT22;15704;48.834;8.736;2022-07-06T15:53:37;23.50;73.80
28484;DHT22;15704;48.834;8.736;2022-07-06T15:57:21;23.10;73.60
28484;DHT22;15704;48.834;8.736;2022-07-06T16:01:04;23.10;74.70
28484;DHT22;15704;48.834;8.736;2022-07-06T16:04:47;23.10;72.90
28484;DHT22;15704;48.834;8.736;2022-07-06T16:08:30;23.00;75.20
28484;DHT22;15704;48.834;8.736;2022-07-06T16:12:26;22.70;74.90
28484;DHT22;15704;48.834;8.736;2022-07-06T16:16:10;22.50;75.80
28484;DHT22;15704;48.834;8.736;2022-07-06T16:19:53;22.60;75.70
28484;DHT22;15704;48.834;8.736;2022-07-06T16:23:35;22.50;75.60
28484;DHT22;15704;48.834;8.736;2022-07-06T16:27:18;22.00;77.20
28484;DHT22;15704;48.834;8.736;2022-07-06T16:31:03;21.60;77.90
28484;DHT22;15704;48.834;8.736;2022-07-06T16:34:46;21.80;78.00
28484;DHT22;15704;48.834;8.736;2022-07-06T16:38:30;21.50;78.70
28484;DHT22;15704;48.834;8.736;2022-07-06T16:42:13;21.40;77.70
28484;DHT22;15704;48.834;8.736;2022-07-06T16:45:58;21.40;79.10
28484;DHT22;15704;48.834;8.736;2022-07-06T16:49:43;21.30;78.40
28484;DHT22;15704;48.834;8.736;2022-07-06T16:53:26;21.10;78.40
28484;DHT22;15704;48.834;8.736;2022-07-06T16:57:09;21.30;78.60
28484;DHT22;15704;48.834;8.736;2022-07-06T17:00:52;21.60;78.80
28484;DHT22;15704;48.834;8.736;2022-07-06T17:04:37;21.60;76.10
28484;DHT22;15704;48.834;8.736;2022-07-06T17:08:22;21.30;76.20
28484;DHT22;15704;48.834;8.736;2022-07-06T17:12:07;21.30;75.20
28484;DHT22;15704;48.834;8.736;2022-07-06T17:15:50;21.00;74.90
28484;DHT22;15704;48.834;8.736;2022-07-06T17:19:36;21.00;75.90
28484;DHT22;15704;48.834;8.736;2022-07-06T17:23:19;21.00;75.30
28484;DHT22;15704;48.834;8.736;2022-07-06T17:27:04;21.10;75.70
28484;DHT22;15704;48.834;8.736;2022-07-06T17:30:49;21.10;74.60
28484;DHT22;15704;48.834;8.736;2022-07-06T17:34:32;21.10;73.90
28484;DHT22;15704;48.834;8.736;2022-07-06T17:38:15;21.50;73.50
28484;DHT22;15704;48.834;8.736;2022-07-06T17:41:58;21.40;72.80
28484;DHT22;15704;48.834;8.736;2022-07-06T17:45:43;21.10;74.30
28484;DHT22;15704;48.834;8.736;2022-07-06T17:49:28;20.40;75.70
28484;DHT22;15704;48.834;8.736;2022-07-06T17:53:15;19.80;77.40
28484;DHT22;15704;48.834;8.736;2022-07-06T17:56:58;19.40;78.60
28484;DHT22;15704;48.834;8.736;2022-07-06T18:00:44;19.30;79.00
28484;DHT22;15704;48.834;8.736;2022-07-06T18:04:28;19.30;79.70
28484;DHT22;15704;48.834;8.736;2022-07-06T18:08:13;19.40;79.00
28484;DHT22;15704;48.834;8.736;2022-07-06T18:11:57;19.70;78.90
28484;DHT22;15704;48.834;8.736;2022-07-06T18:15:39;19.90;77.80
28484;DHT22;15704;48.834;8.736;2022-07-06T18:19:24;19.70;78.70
28484;DHT22;15704;48.834;8.736;2022-07-06T18:23:14;19.60;79.60
28484;DHT22;15704;48.834;8.736;2022-07-06T18:26:56;20.30;77.10
28484;DHT22;15704;48.834;8.736;2022-07-06T18:30:39;20.50;75.70
28484;DHT22;15704;48.834;8.736;2022-07-06T18:34:25;20.10;77.30
28484;DHT22;15704;48.834;8.736;2022-07-06T18:38:09;19.60;79.70
28484;DHT22;15704;48.834;8.736;2022-07-06T18:41:53;18.90;82.70
28484;DHT22;15704;48.834;8.736;2022-07-06T18:45:36;18.40;84.40
28484;DHT22;15704;48.834;8.736;2022-07-06T18:49:19;18.20;84.80
28484;DHT22;15704;48.834;8.736;2022-07-06T18:53:05;18.00;86.20
28484;DHT22;15704;48.834;8.736;2022-07-06T18:56:48;17.80;86.80
28484;DHT22;15704;48.834;8.736;2022-07-06T19:00:31;17.60;87.40
28484;DHT22;15704;48.834;8.736;2022-07-06T19:04:17;17.30;87.50
28484;DHT22;15704;48.834;8.736;2022-07-06T19:08:01;17.30;88.30
28484;DHT22;15704;48.834;8.736;2022-07-06T19:11:45;17.30;89.30
28484;DHT22;15704;48.834;8.736;2022-07-06T19:15:29;17.20;89.50
28484;DHT22;15704;48.834;8.736;2022-07-06T19:19:14;17.00;89.10
28484;DHT22;15704;48.834;8.736;2022-07-06T19:22:57;17.00;89.90
28484;DHT22;15704;48.834;8.736;2022-07-06T19:26:40;16.80;90.40
28484;DHT22;15704;48.834;8.736;2022-07-06T19:30:28;16.60;90.50
28484;DHT22;15704;48.834;8.736;2022-07-06T19:34:13;16.40;90.70
28484;DHT22;15704;48.834;8.736;2022-07-06T19:37:55;16.30;91.00
28484;DHT22;15704;48.834;8.736;2022-07-06T19:41:41;16.10;91.40
28484;DHT22;15704;48.834;8.736;2022-07-06T19:45:28;16.00;91.60
28484;DHT22;15704;48.834;8.736;2022-07-06T19:49:11;15.90;91.90
28484;DHT22;15704;48.834;8.736;2022-07-06T19:52:57;15.80;92.10
28484;DHT22;15704;48.834;8.736;2022-07-06T19:56:43;15.70;92.20
28484;DHT22;15704;48.834;8.736;2022-07-06T20:00:30;15.60;92.40
28484;DHT22;15704;48.834;8.736;2022-07-06T20:04:14;15.60;92.40
28484;DHT22;15704;48.834;8.736;2022-07-06T20:07:58;15.50;92.50
28484;DHT22;15704;48.834;8.736;2022-07-06T20:11:45;15.50;92.70
28484;DHT22;15704;48.834;8.736;2022-07-06T20:15:30;15.50;92.80
28484;DHT22;15704;48.834;8.736;2022-07-06T20:19:12;15.40;93.10
28484;DHT22;15704;48.834;8.736;2022-07-06T20:23:03;15.30;93.10
28484;DHT22;15704;48.834;8.736;2022-07-06T20:26:46;15.30;93.80
28484;DHT22;15704;48.834;8.736;2022-07-06T20:30:31;15.20;94.30
28484;DHT22;15704;48.834;8.736;2022-07-06T20:34:14;15.00;94.60
28484;DHT22;15704;48.834;8.736;2022-07-06T20:37:58;14.90;95.10
28484;DHT22;15704;48.834;8.736;2022-07-06T20:41:44;14.80;95.30
28484;DHT22;15704;48.834;8.736;2022-07-06T20:45:28;14.60;95.50
28484;DHT22;15704;48.834;8.736;2022-07-06T20:49:15;14.50;96.10
28484;DHT22;15704;48.834;8.736;2022-07-06T20:53:02;14.40;96.00
28484;DHT22;15704;48.834;8.736;2022-07-06T20:56:46;14.30;96.10
28484;DHT22;15704;48.834;8.736;2022-07-06T21:00:29;14.20;96.40
28484;DHT22;15704;48.834;8.736;2022-07-06T21:04:16;14.20;96.60
28484;DHT22;15704;48.834;8.736;2022-07-06T21:07:59;14.10;96.70
28484;DHT22;15704;48.834;8.736;2022-07-06T21:11:42;14.00;96.80
28484;DHT22;15704;48.834;8.736;2022-07-06T21:15:25;14.00;97.00
28484;DHT22;15704;48.834;8.736;2022-07-06T21:19:08;13.90;97.10
28484;DHT22;15704;48.834;8.736;2022-07-06T21:22:52;13.90;97.10
28484;DHT22;15704;48.834;8.736;2022-07-06T21:26:35;13.80;97.20
28484;DHT22;15704;48.834;8.736;2022-07-06T21:30:23;13.70;97.30
28484;DHT22;15704;48.834;8.736;2022-07-06T21:34:06;13.70;97.50
28484;DHT22;15704;48.834;8.736;2022-07-06T21:37:49;13.60;97.60
28484;DHT22;15704;48.834;8.736;2022-07-06T21:41:33;13.60;97.70
28484;DHT22;15704;48.834;8.736;2022-07-06T21:45:16;13.50;97.80
28484;DHT22;15704;48.834;8.736;2022-07-06T21:48:59;13.50;97.90
28484;DHT22;15704;48.834;8.736;2022-07-06T21:52:41;13.50;97.60
28484;DHT22;15704;48.834;8.736;2022-07-06T21:56:24;13.50;97.90
28484;DHT22;15704;48.834;8.736;2022-07-06T22:00:10;13.50;98.10
28484;DHT22;15704;48.834;8.736;2022-07-06T22:03:53;13.40;98.00
28484;DHT22;15704;48.834;8.736;2022-07-06T22:07:37;13.30;98.40
28484;DHT22;15704;48.834;8.736;2022-07-06T22:11:20;13.30;98.40
28484;DHT22;15704;48.834;8.736;2022-07-06T22:15:03;13.20;98.50
28484;DHT22;15704;48.834;8.736;2022-07-06T22:18:48;13.20;98.50
28484;DHT22;15704;48.834;8.736;2022-07-06T22:22:31;13.20;98.50
28484;DHT22;15704;48.834;8.736;2022-07-06T22:26:17;13.10;98.50
28484;DHT22;15704;48.834;8.736;2022-07-06T22:30:02;13.10;98.60
28484;DHT22;15704;48.834;8.736;2022-07-06T22:33:45;13.00;98.70
28484;DHT22;15704;48.834;8.736;2022-07-06T22:52:40;12.30;99.70
28484;DHT22;15704;48.834;8.736;2022-07-06T22:56:23;12.20;99.90
28484;DHT22;15704;48.834;8.736;2022-07-06T23:00:08;12.20;99.90
28484;DHT22;15704;48.834;8.736;2022-07-06T23:03:54;12.30;99.90
28484;DHT22;15704;48.834;8.736;2022-07-06T23:07:41;12.40;99.90
28484;DHT22;15704;48.834;8.736;2022-07-06T23:11:32;12.40;99.90
28484;DHT22;15704;48.834;8.736;2022-07-06T23:15:15;12.50;99.90
28484;DHT22;15704;48.834;8.736;2022-07-06T23:18:58;12.60;99.90
28484;DHT22;15704;48.834;8.736;2022-07-06T23:22:45;12.60;99.90
28484;DHT22;15704;48.834;8.736;2022-07-06T23:26:27;12.60;99.90
28484;DHT22;15704;48.834;8.736;2022-07-06T23:30:11;12.60;99.90
28484;DHT22;15704;48.834;8.736;2022-07-06T23:33:54;12.60;99.90
28484;DHT22;15704;48.834;8.736;2022-07-06T23:37:37;12.70;99.90
28484;DHT22;15704;48.834;8.736;2022-07-06T23:41:24;12.70;99.80
28484;DHT22;15704;48.834;8.736;2022-07-06T23:45:08;12.70;99.90
28484;DHT22;15704;48.834;8.736;2022-07-06T23:48:51;12.80;99.70
28484;DHT22;15704;48.834;8.736;2022-07-06T23:52:34;12.80;99.90